Atlanta, Georgia
Traffic Map
Current Weather Conditions
Atlanta, Georgia
Clear
Clear
34°
Feels Like: 34°
Wind Chill: 34° Ceiling: Unl
Heat Index: 34° Visibility: 10mi
Dew Point: 23° Wind: 0mph
Humidity: 64% Direction: ° ()
Pressure: 30.25in Gusts: 0mph
Raw Report DataKATL 290952Z 00000KT 10SM CLR 01/M05 A3025 RMK AO2 SLP249 T00111050
Traffic Incident Summary
Active as of:
Severity:
Category:
InformationThere was an issue retrieving the traffic information for this location. Please try a different location or try again shortly.
Advertisements
Track Severe Weather on mobile